Bartow, GA (30413)

9:51 PM EDT on July 09, 2014 (GMT -0400)
RAWS LOUISVILLE GA US (MLOUG1) Elev 311 ft | 32.99 °N, 82.38 °W | Change Station

Current weather conditions updated 48 minutes ago

Clear
Clear
77 °F
Feels Like 79 °F
N
2
Wind Variable Wind from North
Gusts 13.0 mph

Tomorrow is forecast to be Cooler than today. Afternoon showers and thunderstorms.

Today
High -- | Low -- °F
--% Chance of Precip.
Yesterday
High -- | Low -- °F
Precip. -- in
6:29 AM 8:41 PM
Waxing Gibbous, 92% visible
Pressure 30.03 in
Visibility 10.0 miles
Clouds Clear
Heat Index 79 °F
Dew Point 66 °F
Humidity 70%
Rainfall 0.00 in
Snow Depth Not available.
UV 0 out of 12
Pollen 3.10 out of 12
Air Quality Not available.
Flu Activity Sporadic
METAR KSBO 100135Z AUTO 00000KT 10SM CLR 27/22 A3003 RMK AO2 LTG DSNT NW

More Conditions Fewer Conditions

Pressure 30.03 in
Visibility 10.0 miles
Clouds Clear
Heat Index 79 °F
Dew Point 66 °F
Humidity 70%
Rainfall 0.00 in
Snow Depth Not available.
UV 0 out of 12
Pollen 3.10 out of 12
Air Quality Not available.
Flu Activity Sporadic
METAR KSBO 100135Z AUTO 00000KT 10SM CLR 27/22 A3003 RMK AO2 LTG DSNT NW

More Conditions Fewer Conditions

10-Day Weather Forecast

Almanac

Astronomy

Jul. 09, 2014 Rise Set
Actual Time 6:29 AM EDT 8:41 PM EDT
Civil Twilight 6:00 AM EDT 9:09 PM EDT
Nautical Twilight 5:26 AM EDT 9:43 PM EDT
Astronomical Twilight 4:48 AM EDT 10:21 PM EDT
Moon 5:54 PM EDT (7/9) 3:41 AM EDT (7/9)
Length of Visible Light 15h 08m
Length of Day
14h 11m
Tomorrow will be 0m 48s shorter.
Waxing Gibbous, 92% of the Moon is Illuminated
Today
Waxing Gibbous
Jul 12
Full
Jul 18
Last Quarter
Jul 26
New
Aug 3
First Quarter

Today's Extremes

State Highs State Lows

Community

WunderPhotos

Upload Photos

1,732,023 photos uploaded!

Nearby

Snow Depth

Station Depth Elevation
No new snow has been reported.

Earthquake Activity

City Distance Mag. Time & Date
No recent earthquake activity has been reported nearby.
Minimum magnitude displayed is 2.5.

Coastal Water Temperatures

Place Temperature
No Stations Reporting

Nearby Weather Stations

Station Location Temp. Heat Index Dew Point Humidity Wind Precip. Elev Updated Type
RAWS LOUISVILLE GA, Louisville, GA 77 °F 79 °F 66 °F 70% North  at  2 mph 0.00 in / hr 311 ft 9:03 PM EDT MADIS

Show More Stations Show Fewer Stations